Buckley Air Force Base
KBKF : now visible

Airfield :











YOU CAN JOIN US ON...

 
LOGIN :

Register | Disclaimer

   EN    FR    IT 

 









Legend :    VFR   Marginal VFR   IFR   Intensive IFR   Very Intensive IFR
Visi :
Ceiling :
>= 8 km
>= 3000ft
5 to 8 km
1000 to 3000 ft
1500m to 5 km
500 to 1000 ft
800 to 1500m
200 to 500 ft
< 800m
< 200 ft
Symbols :   Thunderstorms  Fog  Heavy snow  Heavy precipitations  Wind > 20 kt






- Airport Elevation : 5662 ft


KBKF - Buckley Air Force Base

CURRENT METAR :
  • 250658Z 03011KT 10SM OVC012 M04/M07 A3004 RMK AO2A SLP160 T10411070 401481063

EXPIRED METARs :
  • 250558Z 03013KT 10SM OVC013 M02/M05 A3003 RMK AO2A SLP152 T10171047 10069 21017 52031
  • 250515Z 03013KT 10SM BKN017 OVC110 M01/M06 A3002 RMK AO2A SLP153
  • 250458Z 01012KT 10SM BKN110 00/M06 A3002 RMK AO2A SLP153 T00011056

TAF TAF KBKF
Valid from the 25 at 01:00 until the 26 at 07:00 UTC


250103Z 2501/2607 33009KT 9999 FEW140 BKN220 QNH2972INS
BECMG 2504/2505 36012G18KT 9999 SCT100 QNH2982INS
TEMPO 2505/2508 36020G30KT 520009
BECMG 2508/2509 33012G18KT 8000 -SN BKN020 BKN100 620209 QNH2987INS
TEMPO 2509/2513 FZDZ 660002 TX11/2501Z TNM12/2601Z
KZDV FIR / North America



MET'MAP, your aeronautical weather chart ! - Copyright ORBIFLY December 2007 - Disclaimer

ORBIFLY MET'MAP TEAM :

Programming & Development : Alexandra Zaïnal
Concept & original design : Baudouin d'Aumeries
Assistance for programming : Marc-Olivier Méhu
Technical & hardware support : Manuel Goepfert

Contact : metmap@orbifly.com




SOURCES & CREDITS :

   NOAA       Earth
Advisory